createdAt,value
2023-05-21T00:01:30.977Z,6.43
2023-05-21T00:04:00.275Z,7.03
2023-05-21T00:06:28.666Z,6.82
2023-05-21T00:08:56.804Z,7.38
2023-05-21T00:11:25.446Z,6.53
2023-05-21T00:13:53.971Z,6.60
2023-05-21T00:16:22.912Z,7.20
2023-05-21T00:18:54.544Z,6.95
2023-05-21T00:21:23.649Z,6.60
2023-05-21T00:23:52.371Z,6.35
2023-05-21T00:26:22.052Z,6.82
2023-05-21T00:28:50.169Z,6.55
2023-05-21T00:31:19.630Z,7.15
2023-05-21T00:33:48.221Z,6.95
2023-05-21T00:36:17.892Z,7.07
2023-05-21T00:38:46.450Z,7.10
2023-05-21T00:41:14.916Z,6.97
2023-05-21T00:43:44.830Z,6.50
2023-05-21T00:46:17.074Z,6.70
2023-05-21T00:48:46.363Z,6.57
2023-05-21T00:51:16.020Z,6.38
2023-05-21T00:53:46.691Z,7.45
2023-05-21T00:56:15.712Z,6.72
2023-05-21T00:58:43.891Z,6.63
2023-05-21T01:01:14.306Z,7.00
2023-05-21T01:03:43.250Z,6.82
2023-05-21T01:06:14.482Z,6.53
2023-05-21T01:08:42.970Z,6.40
2023-05-21T01:11:13.273Z,6.75
2023-05-21T01:13:43.623Z,7.07
2023-05-21T01:16:13.681Z,6.68
2023-05-21T01:18:44.091Z,6.78
2023-05-21T01:21:12.421Z,6.75
2023-05-21T01:23:41.919Z,7.35
2023-05-21T01:26:13.445Z,6.75
2023-05-21T01:28:42.246Z,7.07
2023-05-21T01:31:20.313Z,7.38
2023-05-21T01:33:51.814Z,6.97
2023-05-21T01:36:26.357Z,6.78
2023-05-21T01:39:02.113Z,7.05
2023-05-21T01:41:34.694Z,7.38
2023-05-21T01:44:04.668Z,7.10
2023-05-21T01:46:36.372Z,7.07
2023-05-21T01:49:06.222Z,7.13
2023-05-21T01:51:35.194Z,7.25
2023-05-21T01:54:05.289Z,7.70
2023-05-21T01:56:34.023Z,7.28
2023-05-21T01:59:02.693Z,7.03
2023-05-21T02:01:31.221Z,7.05
2023-05-21T02:04:00.246Z,7.72
2023-05-21T02:06:29.494Z,7.47
2023-05-21T02:08:57.628Z,7.22
2023-05-21T02:11:28.301Z,6.97
2023-05-21T02:13:57.707Z,7.25
2023-05-21T02:16:26.781Z,6.88
2023-05-21T02:18:57.860Z,6.72
2023-05-21T02:21:26.539Z,7.35
2023-05-21T02:23:55.103Z,6.97
2023-05-21T02:26:23.461Z,7.40
2023-05-21T02:28:53.389Z,7.00
2023-05-21T02:31:21.473Z,7.25
2023-05-21T02:33:49.591Z,7.70
2023-05-21T02:36:19.670Z,6.95
2023-05-21T02:38:48.232Z,7.28
2023-05-21T02:41:16.758Z,6.93
2023-05-21T02:43:44.809Z,6.93
2023-05-21T02:46:14.845Z,6.88
2023-05-21T02:48:42.933Z,7.25
2023-05-21T02:51:12.003Z,6.72
2023-05-21T02:53:41.017Z,6.75
2023-05-21T02:56:09.680Z,7.20
2023-05-21T02:58:38.309Z,7.07
2023-05-21T03:01:06.463Z,6.78
2023-05-21T03:03:36.401Z,7.57
2023-05-21T03:06:05.326Z,6.78
2023-05-21T03:08:33.434Z,7.30
2023-05-21T03:11:01.770Z,7.30
2023-05-21T03:13:30.340Z,6.57
2023-05-21T03:15:58.432Z,7.53
2023-05-21T03:18:27.028Z,7.63
2023-05-21T03:20:59.467Z,7.35
2023-05-21T03:23:28.009Z,7.10
2023-05-21T03:25:56.545Z,6.90
2023-05-21T03:28:25.084Z,6.93
2023-05-21T03:30:53.858Z,8.13
2023-05-21T03:33:22.948Z,6.90
2023-05-21T03:35:51.584Z,7.78
2023-05-21T03:38:21.566Z,7.47
2023-05-21T03:40:49.949Z,7.55
2023-05-21T03:43:18.453Z,7.82
2023-05-21T03:45:47.029Z,7.53
2023-05-21T03:48:15.237Z,7.50
2023-05-21T03:50:43.823Z,7.72
2023-05-21T03:53:12.527Z,7.50
2023-05-21T03:55:42.117Z,7.55
2023-05-21T03:58:10.950Z,7.72
2023-05-21T04:00:39.082Z,7.90
2023-05-21T04:03:07.413Z,7.65
2023-05-21T04:05:36.223Z,7.75
2023-05-21T04:08:04.563Z,7.07
2023-05-21T04:10:32.653Z,7.93
2023-05-21T04:13:02.179Z,7.43
2023-05-21T04:15:30.783Z,7.97
2023-05-21T04:18:01.015Z,7.32
2023-05-21T04:20:29.134Z,8.13
2023-05-21T04:22:57.691Z,8.20
2023-05-21T04:25:25.802Z,7.45
2023-05-21T04:27:55.261Z,8.07
2023-05-21T04:30:25.121Z,7.88
2023-05-21T04:32:55.516Z,8.07
2023-05-21T04:35:24.457Z,7.93
2023-05-21T04:37:55.444Z,7.63
2023-05-21T04:40:24.675Z,7.65
2023-05-21T04:42:53.353Z,7.65
2023-05-21T04:45:24.601Z,7.60
2023-05-21T04:47:54.946Z,8.40
2023-05-21T04:50:23.784Z,8.52
2023-05-21T04:52:54.789Z,7.53
2023-05-21T04:55:23.442Z,7.88
2023-05-21T04:57:52.003Z,8.20
2023-05-21T05:00:20.928Z,7.72
2023-05-21T05:02:49.205Z,8.43
2023-05-21T05:05:18.766Z,7.72
2023-05-21T05:07:47.023Z,7.93
2023-05-21T05:10:15.161Z,8.07
2023-05-21T05:12:43.743Z,8.13
2023-05-21T05:15:12.479Z,8.10
2023-05-21T05:17:41.364Z,8.70
2023-05-21T05:20:11.218Z,8.52
2023-05-21T05:22:40.772Z,8.35
2023-05-21T05:25:10.192Z,8.50
2023-05-21T05:27:38.680Z,7.82
2023-05-21T05:30:08.825Z,8.70
2023-05-21T05:32:36.946Z,7.97
2023-05-21T05:35:06.535Z,7.72
2023-05-21T05:37:34.681Z,8.10
2023-05-21T05:40:05.277Z,7.72
2023-05-21T05:42:33.350Z,8.25
2023-05-21T05:45:01.377Z,8.65
2023-05-21T05:47:29.742Z,8.52
2023-05-21T05:49:58.426Z,8.77
2023-05-21T05:52:26.532Z,8.55
2023-05-21T05:54:55.079Z,8.48
2023-05-21T05:57:24.499Z,8.38
2023-05-21T05:59:52.944Z,8.32
2023-05-21T06:02:21.107Z,8.32
2023-05-21T06:04:49.674Z,7.85
2023-05-21T06:07:18.359Z,8.38
2023-05-21T06:09:46.428Z,8.40
2023-05-21T06:12:16.499Z,8.65
2023-05-21T06:14:46.270Z,8.20
2023-05-21T06:17:14.447Z,9.23
2023-05-21T06:19:42.967Z,8.10
2023-05-21T06:22:11.037Z,7.85
2023-05-21T06:24:39.578Z,8.02
2023-05-21T06:27:07.880Z,8.00
2023-05-21T06:29:36.450Z,7.78
2023-05-21T06:32:06.612Z,7.65
2023-05-21T06:34:35.347Z,7.95
2023-05-21T06:37:03.450Z,8.00
2023-05-21T06:39:32.025Z,8.13
2023-05-21T06:42:00.104Z,8.35
2023-05-21T06:44:28.193Z,8.30
2023-05-21T06:46:56.290Z,7.90
2023-05-21T06:49:27.124Z,7.28
2023-05-21T06:51:55.697Z,8.43
2023-05-21T06:54:26.689Z,7.35
2023-05-21T06:56:55.535Z,7.47
2023-05-21T06:59:23.595Z,7.88
2023-05-21T07:01:52.189Z,7.90
2023-05-21T07:04:20.285Z,7.95
2023-05-21T07:06:50.254Z,7.97
2023-05-21T07:09:18.385Z,7.25
2023-05-21T07:11:46.493Z,7.20
2023-05-21T07:14:15.082Z,8.65
2023-05-21T07:16:43.197Z,7.88
2023-05-21T07:19:11.285Z,7.70
2023-05-21T07:21:39.853Z,7.43
2023-05-21T07:24:09.781Z,8.00
2023-05-21T07:26:38.380Z,7.57
2023-05-21T07:29:06.920Z,6.97
2023-05-21T07:31:35.693Z,8.05
2023-05-21T07:34:03.811Z,7.60
2023-05-21T07:36:34.028Z,7.72
2023-05-21T07:39:02.109Z,8.27
2023-05-21T07:41:33.169Z,7.65
2023-05-21T07:44:02.413Z,7.25
2023-05-21T07:46:30.578Z,7.50
2023-05-21T07:48:59.219Z,7.32
2023-05-21T07:51:27.725Z,6.57
2023-05-21T07:53:56.809Z,7.57
2023-05-21T07:56:25.047Z,7.15
2023-05-21T07:58:54.972Z,7.18
2023-05-21T08:01:24.057Z,7.30
2023-05-21T08:03:52.854Z,7.65
2023-05-21T08:06:22.774Z,6.85
2023-05-21T08:08:50.869Z,7.57
2023-05-21T08:11:19.513Z,7.13
2023-05-21T08:13:47.593Z,7.30
2023-05-21T08:16:17.818Z,7.38
2023-05-21T08:18:45.940Z,7.03
2023-05-21T08:21:14.053Z,7.00
2023-05-21T08:23:42.618Z,6.43
2023-05-21T08:26:11.177Z,7.00
2023-05-21T08:28:40.108Z,7.13
2023-05-21T08:31:08.669Z,7.22
2023-05-21T08:33:38.442Z,6.90
2023-05-21T08:36:07.757Z,6.55
2023-05-21T08:38:36.466Z,6.90
2023-05-21T08:41:08.673Z,7.43
2023-05-21T08:43:39.319Z,6.57
2023-05-21T08:46:10.152Z,7.57
2023-05-21T08:48:39.839Z,6.50
2023-05-21T08:51:08.399Z,6.93
2023-05-21T08:53:37.034Z,6.63
2023-05-21T08:56:06.928Z,6.65
2023-05-21T08:58:35.189Z,6.38
2023-05-21T09:01:05.067Z,6.35
2023-05-21T09:03:33.354Z,6.30
2023-05-21T09:06:03.274Z,6.38
2023-05-21T09:08:35.340Z,6.72
2023-05-21T09:11:04.243Z,7.03
2023-05-21T09:13:35.384Z,6.57
2023-05-21T09:16:04.599Z,6.53
2023-05-21T09:18:32.680Z,6.68
2023-05-21T09:21:22.367Z,6.63
2023-05-21T09:23:58.046Z,6.70
2023-05-21T09:26:27.098Z,6.13
2023-05-21T09:29:00.371Z,6.78
2023-05-21T09:31:34.977Z,6.63
2023-05-21T09:34:03.265Z,6.55
2023-05-21T09:36:35.191Z,6.82
2023-05-21T09:39:03.930Z,6.30
2023-05-21T09:41:36.922Z,12.75
2023-05-21T09:44:05.779Z,10.52
2023-05-21T09:46:41.465Z,9.43
2023-05-21T09:49:24.181Z,10.10
2023-05-21T09:51:57.261Z,8.38
2023-05-21T09:54:26.484Z,8.05
2023-05-21T09:56:54.686Z,7.20
2023-05-21T09:59:22.893Z,7.18
2023-05-21T10:01:53.267Z,6.57
2023-05-21T10:04:22.536Z,6.28
2023-05-21T10:06:52.019Z,6.97
2023-05-21T10:09:22.092Z,6.13
2023-05-21T10:11:54.329Z,6.40
2023-05-21T10:14:24.912Z,6.22
2023-05-21T10:16:55.311Z,6.47
2023-05-21T10:19:25.847Z,6.75
2023-05-21T10:21:57.613Z,6.00
2023-05-21T10:24:27.709Z,6.25
2023-05-21T10:26:56.498Z,6.45
2023-05-21T10:29:25.016Z,6.18
2023-05-21T10:31:54.401Z,8.75
2023-05-21T10:34:24.972Z,8.07
2023-05-21T10:36:55.583Z,9.13
2023-05-21T10:39:25.873Z,7.78
2023-05-21T10:42:06.537Z,7.20
2023-05-21T10:44:45.676Z,7.85
2023-05-21T10:47:34.497Z,7.00
2023-05-21T10:50:23.241Z,7.03
2023-05-21T10:53:03.248Z,6.75
2023-05-21T10:55:43.582Z,6.30
2023-05-21T10:58:30.026Z,6.53
2023-05-21T11:01:00.884Z,6.40
2023-05-21T11:03:32.075Z,6.43
2023-05-21T11:06:05.388Z,7.25
2023-05-21T11:08:36.413Z,6.40
2023-05-21T11:11:05.265Z,6.70
2023-05-21T11:13:49.357Z,6.57
2023-05-21T11:16:18.173Z,5.75
2023-05-21T11:19:03.227Z,5.72
2023-05-21T11:21:32.363Z,6.13
2023-05-21T11:24:08.868Z,6.47
2023-05-21T11:27:07.268Z,5.55
2023-05-21T11:29:45.409Z,5.85
2023-05-21T11:32:17.869Z,5.93
2023-05-21T11:34:47.205Z,5.95
2023-05-21T11:37:29.056Z,6.32
2023-05-21T11:39:58.883Z,5.90
2023-05-21T11:42:32.935Z,6.00
2023-05-21T11:45:04.235Z,6.80
2023-05-21T11:47:33.806Z,6.10
2023-05-21T11:50:03.431Z,6.63
2023-05-21T11:52:33.407Z,6.80
2023-05-21T11:55:01.836Z,6.38
2023-05-21T11:57:32.340Z,6.57
2023-05-21T12:00:12.362Z,5.93
2023-05-21T12:02:40.978Z,7.50
2023-05-21T12:05:10.279Z,6.72
2023-05-21T12:07:40.131Z,7.05
2023-05-21T12:10:09.373Z,6.70
2023-05-21T12:12:53.277Z,8.23
2023-05-21T12:15:26.008Z,7.28
2023-05-21T12:17:55.811Z,6.72
2023-05-21T12:20:24.821Z,7.13
2023-05-21T12:22:52.886Z,6.78
2023-05-21T12:25:22.058Z,6.60
2023-05-21T12:27:52.675Z,6.78
2023-05-21T12:30:21.253Z,7.13
2023-05-21T12:32:51.337Z,6.65
2023-05-21T12:35:24.059Z,7.00
2023-05-21T12:37:53.287Z,6.57
2023-05-21T12:40:22.337Z,6.63
2023-05-21T12:42:52.518Z,6.53
2023-05-21T12:45:22.831Z,6.60
2023-05-21T12:47:56.697Z,6.28
2023-05-21T12:50:25.032Z,6.18
2023-05-21T12:52:57.018Z,5.85
2023-05-21T12:55:27.073Z,6.20
2023-05-21T12:58:08.115Z,5.82
2023-05-21T13:00:36.984Z,5.72
2023-05-21T13:03:07.270Z,5.35
2023-05-21T13:05:35.799Z,5.90
2023-05-21T13:08:04.083Z,5.43
2023-05-21T13:10:36.455Z,5.53
2023-05-21T13:13:04.698Z,5.63
2023-05-21T13:15:33.078Z,5.53
2023-05-21T13:18:01.795Z,5.57
2023-05-21T13:20:32.033Z,5.50
2023-05-21T13:23:01.791Z,5.13
2023-05-21T13:25:33.400Z,5.13
2023-05-21T13:28:05.245Z,5.18
2023-05-21T13:30:34.931Z,5.18
2023-05-21T13:33:04.629Z,4.60
2023-05-21T13:35:35.191Z,5.07
2023-05-21T13:38:03.293Z,5.28
2023-05-21T13:40:31.415Z,4.97
2023-05-21T13:42:59.865Z,5.05
2023-05-21T13:45:29.660Z,5.15
2023-05-21T13:47:58.055Z,5.18
2023-05-21T13:50:26.829Z,5.28
2023-05-21T13:52:56.971Z,4.38
2023-05-21T13:55:25.024Z,5.03
2023-05-21T13:57:53.674Z,4.90
2023-05-21T14:00:21.837Z,4.70
2023-05-21T14:02:50.767Z,5.07
2023-05-21T14:05:19.255Z,4.60
2023-05-21T14:07:48.356Z,5.13
2023-05-21T14:10:17.990Z,4.78
2023-05-21T14:12:50.390Z,4.10
2023-05-21T14:15:19.161Z,4.65
2023-05-21T14:17:47.286Z,4.47
2023-05-21T14:20:15.903Z,4.65
2023-05-21T14:22:44.757Z,4.22
2023-05-21T14:25:12.852Z,4.35
2023-05-21T14:27:42.797Z,5.05
2023-05-21T14:30:11.658Z,3.83
2023-05-21T14:32:39.819Z,4.78
2023-05-21T14:35:08.367Z,4.10
2023-05-21T14:37:36.960Z,4.40
2023-05-21T14:40:08.292Z,4.60
2023-05-21T14:42:36.829Z,4.28
2023-05-21T14:45:18.155Z,4.68
2023-05-21T14:47:48.822Z,4.50
2023-05-21T14:50:18.927Z,4.55
2023-05-21T14:52:47.108Z,4.03
2023-05-21T14:55:16.908Z,4.43
2023-05-21T14:57:45.449Z,4.63
2023-05-21T15:00:15.848Z,4.28
2023-05-21T15:02:44.453Z,4.32
2023-05-21T15:05:12.714Z,4.50
2023-05-21T15:07:40.829Z,3.90
2023-05-21T15:10:10.953Z,4.10
2023-05-21T15:12:39.241Z,4.15
2023-05-21T15:15:08.304Z,4.20
2023-05-21T15:17:37.904Z,3.70
2023-05-21T15:20:07.942Z,4.00
2023-05-21T15:22:36.257Z,4.32
2023-05-21T15:25:05.857Z,4.60
2023-05-21T15:27:34.251Z,4.63
2023-05-21T15:30:03.068Z,4.43
2023-05-21T15:32:31.949Z,4.22
2023-05-21T15:35:01.981Z,4.72
2023-05-21T15:37:32.330Z,4.35
2023-05-21T15:40:02.087Z,4.07
2023-05-21T15:42:31.809Z,4.45
2023-05-21T15:45:00.607Z,4.40
2023-05-21T15:47:29.248Z,4.10
2023-05-21T15:49:58.763Z,4.00
2023-05-21T15:52:28.815Z,4.30
2023-05-21T15:54:56.928Z,4.35
2023-05-21T15:57:25.491Z,4.07
2023-05-21T15:59:53.593Z,4.05
2023-05-21T16:02:22.180Z,4.80
2023-05-21T16:04:51.884Z,3.70
2023-05-21T16:07:22.060Z,4.25
2023-05-21T16:09:51.603Z,4.10
2023-05-21T16:12:20.198Z,4.63
2023-05-21T16:14:50.099Z,4.72
2023-05-21T16:17:18.391Z,4.28
2023-05-21T16:19:47.912Z,3.88
2023-05-21T16:22:16.181Z,4.18
2023-05-21T16:24:44.744Z,4.78
2023-05-21T16:27:14.450Z,3.97
2023-05-21T16:29:42.596Z,4.40
2023-05-21T16:32:13.399Z,4.00
2023-05-21T16:34:41.588Z,3.97
2023-05-21T16:37:10.203Z,4.10
2023-05-21T16:39:39.285Z,4.70
2023-05-21T16:42:07.548Z,4.20
2023-05-21T16:44:39.413Z,3.90
2023-05-21T16:47:09.269Z,4.47
2023-05-21T16:49:37.352Z,4.20
2023-05-21T16:52:05.707Z,4.40
2023-05-21T16:54:35.440Z,4.45
2023-05-21T16:57:04.048Z,3.92
2023-05-21T16:59:32.604Z,4.15
2023-05-21T17:02:02.655Z,4.70
2023-05-21T17:04:30.857Z,4.00
2023-05-21T17:07:00.270Z,4.57
2023-05-21T17:09:29.061Z,4.38
2023-05-21T17:11:57.314Z,4.07
2023-05-21T17:14:33.653Z,5.43
2023-05-21T17:17:04.359Z,4.72
2023-05-21T17:19:32.473Z,4.40
2023-05-21T17:22:00.670Z,4.28
2023-05-21T17:24:28.797Z,4.10
2023-05-21T17:26:57.640Z,4.63
2023-05-21T17:29:26.467Z,4.25
2023-05-21T17:31:54.621Z,4.50
2023-05-21T17:34:26.723Z,4.10
2023-05-21T17:36:55.400Z,4.53
2023-05-21T17:39:24.937Z,4.82
2023-05-21T17:41:54.147Z,4.63
2023-05-21T17:44:22.802Z,4.55
2023-05-21T17:46:52.061Z,4.53
2023-05-21T17:49:22.052Z,5.30
2023-05-21T17:51:51.673Z,4.68
2023-05-21T17:54:21.569Z,4.32
2023-05-21T17:56:49.650Z,4.40
2023-05-21T17:59:17.794Z,4.78
2023-05-21T18:01:46.363Z,4.60
2023-05-21T18:04:14.465Z,4.88
2023-05-21T18:06:44.301Z,4.63
2023-05-21T18:09:15.691Z,4.38
2023-05-21T18:11:45.208Z,4.60
2023-05-21T18:14:14.139Z,4.32
2023-05-21T18:16:42.836Z,4.63
2023-05-21T18:19:12.498Z,5.10
2023-05-21T18:21:42.274Z,4.50
2023-05-21T18:24:10.425Z,4.18
2023-05-21T18:26:40.383Z,4.40
2023-05-21T18:29:10.828Z,4.60
2023-05-21T18:31:39.532Z,4.50
2023-05-21T18:34:08.133Z,4.57
2023-05-21T18:36:38.856Z,4.70
2023-05-21T18:39:08.599Z,4.32
2023-05-21T18:41:37.434Z,4.10
2023-05-21T18:44:07.213Z,4.50
2023-05-21T18:46:36.184Z,4.18
2023-05-21T18:49:04.483Z,4.13
2023-05-21T18:51:33.024Z,4.45
2023-05-21T18:54:01.605Z,4.70
2023-05-21T18:56:29.747Z,4.63
2023-05-21T18:58:58.426Z,4.30
2023-05-21T19:01:27.989Z,4.15
2023-05-21T19:03:56.154Z,4.43
2023-05-21T19:06:26.036Z,4.38
2023-05-21T19:08:54.320Z,4.97
2023-05-21T19:11:23.664Z,4.45
2023-05-21T19:13:51.936Z,4.55
2023-05-21T19:16:20.859Z,4.32
2023-05-21T19:18:50.340Z,4.32
2023-05-21T19:21:18.641Z,4.45
2023-05-21T19:23:53.154Z,4.60
2023-05-21T19:26:23.038Z,4.63
2023-05-21T19:28:54.344Z,5.00
2023-05-21T19:31:23.348Z,4.35
2023-05-21T19:33:53.404Z,4.63
2023-05-21T19:36:22.445Z,4.57
2023-05-21T19:38:52.296Z,4.85
2023-05-21T19:41:21.569Z,4.55
2023-05-21T19:43:49.869Z,4.93
2023-05-21T19:46:20.498Z,4.82
2023-05-21T19:48:48.972Z,5.47
2023-05-21T19:51:18.750Z,4.85
2023-05-21T19:53:47.290Z,4.78
2023-05-21T19:56:15.950Z,6.82
2023-05-21T19:58:47.132Z,6.38
2023-05-21T20:01:16.169Z,5.65
2023-05-21T20:03:45.408Z,5.93
2023-05-21T20:06:15.780Z,5.50
2023-05-21T20:08:45.770Z,5.60
2023-05-21T20:11:14.450Z,5.82
2023-05-21T20:13:43.290Z,5.45
2023-05-21T20:16:13.027Z,6.25
2023-05-21T20:18:41.727Z,5.50
2023-05-21T20:21:10.998Z,5.78
2023-05-21T20:23:39.086Z,5.63
2023-05-21T20:26:08.642Z,5.18
2023-05-21T20:28:37.425Z,5.72
2023-05-21T20:31:06.785Z,5.55
2023-05-21T20:33:38.717Z,5.72
2023-05-21T20:36:09.625Z,5.10
2023-05-21T20:38:38.357Z,5.75
2023-05-21T20:41:08.676Z,6.20
2023-05-21T20:43:37.483Z,5.85
2023-05-21T20:46:06.198Z,5.50
2023-05-21T20:48:35.254Z,5.30
2023-05-21T20:51:04.791Z,5.80
2023-05-21T20:53:33.773Z,7.05
2023-05-21T20:56:02.579Z,6.63
2023-05-21T20:58:32.023Z,6.00
2023-05-21T21:01:02.288Z,6.00
2023-05-21T21:03:34.195Z,5.50
2023-05-21T21:06:03.271Z,6.45
2023-05-21T21:08:31.483Z,5.85
2023-05-21T21:11:00.144Z,5.65
2023-05-21T21:13:28.720Z,5.75
2023-05-21T21:15:58.205Z,6.05
2023-05-21T21:18:26.785Z,5.28
2023-05-21T21:20:55.530Z,6.05
2023-05-21T21:23:24.749Z,5.80
2023-05-21T21:25:52.936Z,6.00
2023-05-21T21:28:21.142Z,5.45
2023-05-21T21:30:49.821Z,5.82
2023-05-21T21:33:19.398Z,5.32
2023-05-21T21:35:47.595Z,5.45
2023-05-21T21:38:16.547Z,5.57
2023-05-21T21:40:44.645Z,5.40
2023-05-21T21:43:13.356Z,5.68
2023-05-21T21:45:41.570Z,5.75
2023-05-21T21:48:10.300Z,5.53
2023-05-21T21:50:40.019Z,5.68
2023-05-21T21:53:09.857Z,5.78
2023-05-21T21:55:38.052Z,6.20
2023-05-21T21:58:06.818Z,5.03
2023-05-21T22:00:35.031Z,5.88
2023-05-21T22:03:03.730Z,5.53
2023-05-21T22:05:32.718Z,5.93
2023-05-21T22:08:03.075Z,6.45
2023-05-21T22:10:33.541Z,5.85
2023-05-21T22:13:02.723Z,5.75
2023-05-21T22:15:32.349Z,5.82
2023-05-21T22:18:02.801Z,5.75
2023-05-21T22:20:31.168Z,5.60
2023-05-21T22:23:00.555Z,5.50
2023-05-21T22:25:30.036Z,5.88
2023-05-21T22:27:58.666Z,5.60
2023-05-21T22:30:26.830Z,5.40
2023-05-21T22:32:55.424Z,5.72
2023-05-21T22:35:24.260Z,5.95
2023-05-21T22:37:52.870Z,5.85
2023-05-21T22:40:21.431Z,6.13
2023-05-21T22:42:51.514Z,5.63
2023-05-21T22:45:22.183Z,5.47
2023-05-21T22:47:52.361Z,5.57
2023-05-21T22:50:21.000Z,5.95
2023-05-21T22:52:49.136Z,6.15
2023-05-21T22:55:17.908Z,6.05
2023-05-21T22:57:46.724Z,5.88
2023-05-21T23:00:19.119Z,6.05
2023-05-21T23:02:48.088Z,6.88
2023-05-21T23:05:16.561Z,6.25
2023-05-21T23:07:44.699Z,6.90
2023-05-21T23:10:15.941Z,6.93
2023-05-21T23:12:44.637Z,7.28
2023-05-21T23:15:13.117Z,7.10
2023-05-21T23:17:43.049Z,7.15
2023-05-21T23:20:11.624Z,7.03
2023-05-21T23:22:40.321Z,8.07
2023-05-21T23:25:09.626Z,7.75
2023-05-21T23:27:41.049Z,7.43
2023-05-21T23:30:11.210Z,7.97
2023-05-21T23:32:39.808Z,7.75
2023-05-21T23:35:11.352Z,7.68
2023-05-21T23:37:39.411Z,7.47
2023-05-21T23:40:09.790Z,7.35
2023-05-21T23:42:38.422Z,8.23
2023-05-21T23:45:07.378Z,7.68
2023-05-21T23:47:35.990Z,7.95
2023-05-21T23:50:04.124Z,7.75
2023-05-21T23:52:34.229Z,8.30
2023-05-21T23:55:02.348Z,8.55
2023-05-21T23:57:30.592Z,8.02
2023-05-21T23:59:59.115Z,7.82
